MST,Max TemperatureF,Mean TemperatureF,Min TemperatureF,Max Dew PointF,MeanDew PointF,Min DewpointF,Max Humidity, Mean Humidity, Min Humidity, Max Sea Level PressureIn, Mean Sea Level PressureIn, Min Sea Level PressureIn, Max VisibilityMiles, Mean VisibilityMiles, Min VisibilityMiles, Max Wind SpeedMPH, Mean Wind SpeedMPH, Max Gust SpeedMPH,PrecipitationIn, CloudCover, Events, WindDirDegrees
2013-3-1,75,62,48,21,15,12,25,17,12,30.34,30.28,30.19,15,15,15,13,10,,0.00,0,,327
2013-3-2,77,62,51,28,28,27,38,26,16,30.28,30.25,30.20,,,,10,8,,0.00,0,,34
2013-3-3,71,60,51,34,32,30,47,36,23,30.07,30.03,29.93,20,20,20,8,6,,0.00,5,,10
2013-3-4,73,62,53,36,32,28,47,30,22,29.94,29.92,29.86,10,10,10,13,7,,0.00,1,,235
2013-3-5,75,64,53,36,30,25,47,25,15,30.11,30.03,29.96,20,20,20,17,8,,0.00,6,,190
2013-3-6,78,66,53,36,31,25,51,29,15,30.04,29.96,29.87,20,20,20,9,6,,0.00,2,,210
2013-3-7,77,65,53,32,29,23,44,24,14,29.96,29.91,29.85,,,,9,7,,0.00,0,,151
2013-3-8,60,53,44,54,49,43,100,85,55,29.88,29.81,29.73,20,12,5,34,15,46,0.00,7,Rain-Thunderstorm,159
2013-3-9,53,46,41,43,38,34,100,76,51,30.06,30.03,29.98,20,20,20,9,5,,0.00,7,,196
2013-3-10,66,54,41,43,37,32,100,56,28,30.18,30.13,30.07,20,20,20,12,7,,0.00,0,,300
2013-3-11,71,60,48,34,30,23,54,34,16,30.18,30.11,30.02,,,,13,9,,0.00,1,,326
2013-3-12,78,64,50,37,34,28,62,32,16,30.09,30.04,29.99,20,20,20,12,9,,0.00,0,,309
2013-3-13,86,72,59,37,32,21,45,24,9,30.14,30.08,30.02,,,,14,9,,0.00,0,,352
2013-3-14,91,76,60,36,31,28,36,20,10,30.12,30.07,29.99,20,20,20,13,10,,0.00,0,,334
2013-3-15,86,73,60,39,37,36,45,30,17,30.02,29.99,29.95,20,20,20,9,6,,0.00,3,,352
2013-3-16,84,72,59,37,31,28,42,23,13,29.86,29.82,29.74,10,10,10,9,8,,0.00,4,,140
2013-3-17,82,70,59,37,28,21,39,20,12,29.87,29.83,29.79,20,20,20,12,6,,0.00,1,,213
2013-3-18,82,70,57,34,30,27,38,21,13,29.98,29.93,29.89,,,,12,5,,0.00,3,,228
2013-3-19,80,70,60,37,32,27,39,23,14,29.99,29.96,29.92,20,20,20,12,7,,0.00,6,,293
2013-3-20,80,70,59,37,33,23,42,27,13,30.04,29.96,29.85,20,20,20,9,6,,0.00,6,,346
2013-3-21,82,75,68,36,34,32,30,21,17,29.81,29.74,29.68,,,,12,7,,0.00,6,,249
2013-3-22,80,68,55,37,35,32,51,28,17,29.75,29.72,29.68,,,,12,5,,0.00,1,,251
2013-3-23,77,65,53,25,1,-11,33,12,4,29.93,29.91,29.89,20,20,20,14,10,,0.00,0,,301
2013-3-24,77,64,51,14,9,5,22,11,7,30.01,29.94,29.86,20,20,20,14,9,,0.00,0,,293
2013-3-25,82,66,51,21,13,7,30,13,6,30.01,29.95,29.90,,,,12,8,,0.00,0,,303
2013-3-26,86,70,55,28,18,7,33,14,5,29.95,29.87,29.80,15,15,15,12,7,,0.00,5,,157
2013-3-27,84,72,59,30,22,12,29,15,7,29.94,29.89,29.84,,,,14,8,,0.00,7,,272
2013-3-28,84,70,57,54,26,18,68,21,10,30.04,29.99,29.94,,,,12,9,,0.00,6,,154
2013-3-29,86,72,59,30,25,16,31,19,8,30.09,30.06,29.99,20,20,20,9,7,,0.00,1,,42
2013-3-30,80,71,62,30,27,25,27,20,13,30.05,30.01,29.94,,,,8,6,,0.00,7,,9
2013-3-31,86,72,57,32,29,27,38,20,12,30.02,29.97,29.88,,,,12,7,,0.00,1,,259